Aérodrome :
LOGIN :

S'inscrire | Disclaimer

   EN    FR    IT 

 










Légende :    VFR   VFR Marginal   IFR   IFR Intensif   IFR Très Intensif
Visi : 
Plafond : 
>= 8 km
>= 3000ft
5 à 8 km
1000 à 3000 ft
1500m à 5 km
500 à 1000 ft
800 à 1500m
200 à 500 ft
< 800m
< 200 ft
Symboles :   Orages  Brouillard  Fortes neiges  Fortes précipitations  Vent > 20 kt
SIGMETs :   Divers  Orages  Givrage  Turbulence  Onde Orograph.  Cendres Volcan.






- Altitude de l'aérodrome : 83 ft
- Code IATA : VOL


LGBL - Aghialos Volos

DERNIER METAR :
  • 090650Z 24004KT 9999 FEW035 07/04 Q1014

METARs EXPIRÉS :
  • 090620Z 00000KT 9999 FEW035 05/03 Q1014
  • 090550Z 25004KT 9999 FEW035 04/02 Q1014
  • 090520Z 00000KT 9999 FEW035 04/02 Q1014
  • 090450Z 00000KT 9999 FEW035 04/01 Q1014
  • 090420Z 28004KT 9999 FEW035 04/01 Q1014

TAF TAF LGBL
Valide du 09 à 06h jusqu'au 09 à 15h UTC


090500Z 0906/0915 29008KT 9999 SCT020



MET'MAP, la Météo Aéronautique d'un coup d'oeil ! - Copyright ORBIFLY Décembre 2007 - Disclaimer

ORBIFLY MET'MAP TEAM :

Programmation & Développement : Alexandra Zaïnal
Sur une idée originale de : Baudouin d'Aumeries
Assistance à la programmation : Marc-Olivier Méhu
Soutien technique & logistique : Manuel Goepfert

Contact : metmap@orbifly.com




SOURCES & CREDITS :

   NOAA